createdAt,value
2019-02-18T00:01:56.669Z,45.52
2019-02-18T00:05:41.314Z,45.31
2019-02-18T00:09:25.947Z,45.18
2019-02-18T00:13:03.585Z,45.09
2019-02-18T00:16:48.202Z,47.79
2019-02-18T00:24:23.116Z,45.87
2019-02-18T00:28:07.738Z,46.20
2019-02-18T00:31:52.658Z,45.92
2019-02-18T00:35:37.290Z,46.91
2019-02-18T00:39:21.926Z,48.46
2019-02-18T00:43:06.531Z,48.33
2019-02-18T00:46:51.179Z,47.60
2019-02-18T00:50:35.818Z,48.17
2019-02-18T00:54:20.415Z,48.32
2019-02-18T00:58:05.022Z,47.86
2019-02-18T01:01:49.650Z,49.94
2019-02-18T01:05:34.584Z,50.06
2019-02-18T01:09:19.184Z,51.04
2019-02-18T01:12:58.269Z,51.04
2019-02-18T01:16:43.157Z,52.33
2019-02-18T01:24:18.276Z,51.45
2019-02-18T01:28:02.975Z,50.69
2019-02-18T01:31:47.930Z,51.05
2019-02-18T01:35:32.784Z,50.83
2019-02-18T01:39:17.431Z,50.50
2019-02-18T01:43:20.893Z,49.17
2019-02-18T01:47:05.507Z,49.17
2019-02-18T01:50:50.142Z,49.25
2019-02-18T01:54:34.754Z,49.40
2019-02-18T01:58:19.384Z,49.37
2019-02-18T02:02:03.988Z,49.70
2019-02-18T02:05:48.581Z,50.58
2019-02-18T02:09:33.221Z,49.21
2019-02-18T02:13:33.486Z,49.21
2019-02-18T02:17:18.108Z,49.84
2019-02-18T02:21:02.743Z,49.89
2019-02-18T02:24:47.335Z,49.09
2019-02-18T02:28:32.254Z,49.40
2019-02-18T02:32:16.845Z,49.86
2019-02-18T02:36:01.451Z,50.69
2019-02-18T02:39:46.086Z,50.45
2019-02-18T02:43:49.789Z,49.83
2019-02-18T02:47:34.735Z,50.07
2019-02-18T02:51:19.368Z,50.05
2019-02-18T02:55:04.002Z,49.79
2019-02-18T02:58:48.938Z,49.83
2019-02-18T03:02:33.548Z,50.04
2019-02-18T03:06:18.471Z,50.98
2019-02-18T03:10:03.085Z,52.11
2019-02-18T03:13:40.256Z,51.61
2019-02-18T03:17:24.857Z,51.79
2019-02-18T03:21:09.455Z,51.63
2019-02-18T03:25:32.228Z,52.92
2019-02-18T03:29:54.990Z,53.76
2019-02-18T03:34:00.720Z,52.76
2019-02-18T03:37:45.613Z,54.67
2019-02-18T03:41:30.210Z,54.39
2019-02-18T03:45:15.164Z,55.31
2019-02-18T03:49:00.149Z,55.13
2019-02-18T03:52:44.751Z,55.84
2019-02-18T03:56:29.361Z,55.33
2019-02-18T04:00:14.134Z,55.66
2019-02-18T04:03:58.782Z,55.71
2019-02-18T04:07:43.447Z,55.70
2019-02-18T04:11:20.239Z,55.37
2019-02-18T04:15:05.181Z,55.48
2019-02-18T04:18:49.824Z,55.81
2019-02-18T04:22:34.470Z,56.12
2019-02-18T04:26:19.127Z,56.12
2019-02-18T04:30:03.749Z,56.42
2019-02-18T04:33:48.374Z,56.42
2019-02-18T04:37:33.024Z,55.26
2019-02-18T04:41:17.607Z,53.99
2019-02-18T04:45:02.219Z,55.02
2019-02-18T04:48:46.854Z,55.55
2019-02-18T04:52:31.494Z,56.20
2019-02-18T04:56:16.134Z,55.82
2019-02-18T05:00:00.876Z,56.01
2019-02-18T05:03:45.546Z,55.61
2019-02-18T05:07:30.162Z,55.18
2019-02-18T05:11:14.773Z,54.40
2019-02-18T05:14:52.468Z,55.17
2019-02-18T05:18:37.062Z,54.82
2019-02-18T05:22:21.701Z,54.05
2019-02-18T05:29:56.647Z,54.09
2019-02-18T05:33:41.237Z,54.27
2019-02-18T05:37:25.889Z,53.86
2019-02-18T05:41:10.541Z,55.04
2019-02-18T05:44:55.162Z,53.84
2019-02-18T05:48:58.963Z,54.07
2019-02-18T05:52:43.821Z,54.27
2019-02-18T06:00:18.781Z,54.05
2019-02-18T06:04:03.424Z,53.83
2019-02-18T06:07:48.025Z,54.32
2019-02-18T06:15:19.436Z,54.33
2019-02-18T06:19:04.054Z,54.34
2019-02-18T06:22:48.701Z,54.81
2019-02-18T06:26:33.302Z,55.68
2019-02-18T06:30:18.207Z,55.79
2019-02-18T06:34:02.848Z,59.61
2019-02-18T06:37:47.468Z,55.77
2019-02-18T06:41:32.728Z,54.65
2019-02-18T06:45:36.593Z,54.12
2019-02-18T06:53:27.223Z,53.71
2019-02-18T06:57:30.656Z,54.06
2019-02-18T07:01:34.131Z,53.79
2019-02-18T07:05:37.544Z,53.72
2019-02-18T07:09:50.461Z,53.22
2019-02-18T07:13:20.424Z,53.52
2019-02-18T07:17:05.064Z,53.97
2019-02-18T07:20:49.686Z,53.71
2019-02-18T07:24:34.404Z,54.01
2019-02-18T07:28:19.035Z,53.45
2019-02-18T07:32:03.996Z,53.71
2019-02-18T07:35:48.622Z,53.38
2019-02-18T07:39:33.237Z,53.13
2019-02-18T07:43:17.866Z,52.63
2019-02-18T07:50:52.724Z,52.36
2019-02-18T07:54:37.307Z,51.98
2019-02-18T07:58:21.932Z,51.19
2019-02-18T08:02:25.775Z,50.99
2019-02-18T08:06:10.435Z,51.17
2019-02-18T08:13:50.894Z,50.90
2019-02-18T08:17:35.543Z,50.15
2019-02-18T08:25:10.449Z,50.01
2019-02-18T08:32:46.665Z,49.15
2019-02-18T08:36:31.318Z,48.36
2019-02-18T08:48:10.670Z,47.86
2019-02-18T08:51:55.689Z,47.76
2019-02-18T08:55:40.643Z,47.46
2019-02-18T09:06:46.869Z,46.30
2019-02-18T09:10:33.865Z,46.26
2019-02-18T09:14:11.225Z,46.24
2019-02-18T09:17:55.834Z,46.13
2019-02-18T09:29:20.137Z,44.82
2019-02-18T09:33:04.812Z,44.60
2019-02-18T09:36:49.467Z,43.80
2019-02-18T09:40:44.214Z,43.75
2019-02-18T09:48:24.078Z,41.83
2019-02-18T09:56:12.245Z,35.61
2019-02-18T09:59:56.889Z,31.98
2019-02-18T10:03:41.517Z,29.64
2019-02-18T10:07:26.186Z,28.50
2019-02-18T10:11:03.433Z,25.16
2019-02-18T10:14:48.357Z,23.55
2019-02-18T10:18:32.978Z,24.09
2019-02-18T10:22:17.597Z,25.11
2019-02-18T10:25:43.176Z,23.88
2019-02-18T10:29:27.826Z,21.95
2019-02-18T10:33:12.484Z,23.22
2019-02-18T10:36:57.119Z,22.24
2019-02-18T10:40:42.024Z,24.16
2019-02-18T10:44:07.859Z,22.87
2019-02-18T10:47:52.489Z,22.44
2019-02-18T10:51:37.437Z,22.07
2019-02-18T10:55:04.733Z,22.07
2019-02-18T10:58:49.349Z,23.98
2019-02-18T11:02:34.294Z,21.89
2019-02-18T11:06:18.977Z,21.76
2019-02-18T11:10:04.264Z,22.83
2019-02-18T11:13:41.476Z,22.06
2019-02-18T11:17:26.135Z,21.32
2019-02-18T11:21:10.789Z,20.82
2019-02-18T11:24:55.414Z,21.01
2019-02-18T11:28:40.366Z,21.26
2019-02-18T11:32:25.632Z,21.04
2019-02-18T11:36:12.032Z,20.97
2019-02-18T11:39:56.754Z,20.17
2019-02-18T11:43:41.391Z,20.57
2019-02-18T11:47:26.034Z,20.84
2019-02-18T11:51:10.672Z,20.74
2019-02-18T11:58:46.029Z,20.49
2019-02-18T12:06:21.082Z,21.02
2019-02-18T12:10:06.728Z,21.48
2019-02-18T12:13:43.636Z,20.79
2019-02-18T12:17:28.373Z,21.01
2019-02-18T12:21:13.004Z,21.64
2019-02-18T12:24:57.668Z,23.99
2019-02-18T12:28:45.029Z,23.21
2019-02-18T12:32:29.076Z,21.53
2019-02-18T12:36:13.725Z,20.77
2019-02-18T12:47:20.256Z,19.72
2019-02-18T12:51:05.433Z,19.33
2019-02-18T12:54:51.176Z,17.20
2019-02-18T12:58:36.258Z,16.01
2019-02-18T13:02:23.849Z,17.50
2019-02-18T13:06:27.635Z,15.38
2019-02-18T13:10:12.664Z,15.00
2019-02-18T13:13:39.953Z,14.66
2019-02-18T13:20:55.387Z,15.54
2019-02-18T13:24:40.298Z,15.78
2019-02-18T13:32:28.475Z,15.16
2019-02-18T13:36:34.677Z,16.35
2019-02-18T13:40:19.657Z,15.29
2019-02-18T13:43:45.431Z,15.23
2019-02-18T13:47:30.332Z,15.25
2019-02-18T13:55:06.904Z,15.62
2019-02-18T13:58:51.674Z,14.78
2019-02-18T14:06:26.963Z,15.16
2019-02-18T14:10:11.575Z,15.07
2019-02-18T14:13:49.321Z,15.34
2019-02-18T14:17:34.692Z,15.18
2019-02-18T14:21:19.431Z,15.36
2019-02-18T14:25:04.098Z,15.78
2019-02-18T14:28:50.494Z,15.51
2019-02-18T14:36:25.790Z,13.94
2019-02-18T14:43:42.498Z,15.25
2019-02-18T14:47:27.155Z,14.56
2019-02-18T14:55:15.768Z,15.10
2019-02-18T14:58:41.354Z,15.80
2019-02-18T15:02:26.053Z,14.49
2019-02-18T15:06:10.698Z,15.28
2019-02-18T15:09:55.623Z,15.44
2019-02-18T15:13:32.374Z,16.16
2019-02-18T15:17:17.085Z,15.56
2019-02-18T15:21:20.577Z,16.30
2019-02-18T15:25:05.821Z,16.93
2019-02-18T15:28:31.363Z,19.67
2019-02-18T15:36:06.399Z,19.58
2019-02-18T15:39:51.234Z,19.13
2019-02-18T15:43:35.860Z,18.87
2019-02-18T15:47:20.805Z,17.44
2019-02-18T15:50:47.056Z,16.99
2019-02-18T15:54:32.000Z,16.74
2019-02-18T15:57:59.633Z,17.43
2019-02-18T16:01:46.158Z,19.16
2019-02-18T16:05:23.844Z,19.88
2019-02-18T16:13:04.781Z,21.90
2019-02-18T16:16:30.619Z,23.04
2019-02-18T16:20:15.351Z,23.43
2019-02-18T16:24:00.008Z,24.43
2019-02-18T16:27:45.232Z,26.55
2019-02-18T16:35:19.710Z,27.90
2019-02-18T16:39:04.634Z,29.00
2019-02-18T16:42:49.286Z,30.68
2019-02-18T16:50:24.394Z,32.53
2019-02-18T16:54:09.024Z,30.54
2019-02-18T17:05:27.398Z,30.38
2019-02-18T17:13:08.195Z,30.56
2019-02-18T17:16:50.007Z,31.05
2019-02-18T17:20:34.645Z,31.22
2019-02-18T17:24:21.843Z,31.92
2019-02-18T17:31:58.667Z,33.52
2019-02-18T17:44:05.444Z,33.54
2019-02-18T17:47:50.085Z,32.83
2019-02-18T17:51:15.639Z,33.81
2019-02-18T17:54:52.417Z,33.51
2019-02-18T18:02:40.513Z,34.71
2019-02-18T18:06:25.178Z,35.80
2019-02-18T18:17:51.765Z,36.22
2019-02-18T18:29:17.634Z,37.88
2019-02-18T18:33:21.072Z,39.32
2019-02-18T18:37:05.740Z,39.30
2019-02-18T18:44:40.780Z,39.37
2019-02-18T18:48:25.661Z,40.67
2019-02-18T18:55:41.496Z,40.97
2019-02-18T18:59:26.154Z,41.02
2019-02-18T19:03:12.483Z,41.10
2019-02-18T19:06:57.119Z,41.33
2019-02-18T19:10:41.782Z,42.19
2019-02-18T19:26:16.367Z,44.36
2019-02-18T19:30:00.955Z,44.36
2019-02-18T19:37:35.466Z,45.77
2019-02-18T19:45:04.741Z,46.21
2019-02-18T19:52:20.735Z,46.37
2019-02-18T19:56:05.360Z,47.06
2019-02-18T19:59:50.908Z,47.12
2019-02-18T20:03:35.568Z,46.75
2019-02-18T20:07:01.559Z,46.24
2019-02-18T20:10:46.346Z,46.90
2019-02-18T20:14:31.821Z,45.96
2019-02-18T20:18:16.482Z,46.44
2019-02-18T20:22:01.494Z,46.84
2019-02-18T20:29:43.524Z,46.39
2019-02-18T20:37:01.024Z,46.11
2019-02-18T20:48:45.958Z,47.07
2019-02-18T20:52:23.772Z,47.22
2019-02-18T20:56:08.419Z,48.42
2019-02-18T21:03:24.528Z,47.80
2019-02-18T21:07:08.715Z,48.30
2019-02-18T21:10:53.568Z,47.98
2019-02-18T21:14:38.168Z,48.52
2019-02-18T21:26:06.170Z,49.53
2019-02-18T21:45:11.762Z,50.00
2019-02-18T21:52:52.911Z,49.84
2019-02-18T22:00:41.055Z,49.54
2019-02-18T22:04:44.707Z,50.00
2019-02-18T22:23:50.138Z,51.38
2019-02-18T22:27:53.596Z,52.00
2019-02-18T22:31:38.312Z,51.21
2019-02-18T22:35:24.627Z,51.05
2019-02-18T22:39:09.746Z,51.88
2019-02-18T22:46:44.567Z,50.58
2019-02-18T22:50:29.179Z,50.68
2019-02-18T22:54:06.787Z,50.96
2019-02-18T23:05:44.932Z,51.33
2019-02-18T23:09:29.882Z,51.63
2019-02-18T23:13:14.779Z,52.23
2019-02-18T23:24:40.151Z,51.24
2019-02-18T23:28:25.071Z,51.25
2019-02-18T23:32:09.965Z,51.08
2019-02-18T23:35:54.570Z,51.74
2019-02-18T23:39:39.187Z,51.69
2019-02-18T23:43:23.835Z,51.79
2019-02-18T23:47:08.673Z,54.00
2019-02-18T23:50:53.312Z,53.10
2019-02-18T23:54:30.525Z,53.92
2019-02-18T23:58:15.155Z,53.22
